Time;durP1;ratioP1;P1;durP2;ratioP2;P2;SDS_P1;SDS_P2;PMS_P1;PMS_P2;Temp;Humidity;BMP_temperature;BMP_pressure;BME280_temperature;BME280_humidity;BME280_pressure;Samples;Min_cycle;Max_cycle;Signal;HPM_P1;HPM_P2
2023/12/31 00:00:51;;;;;;;1.60;1.08;;;;;;;;;;5037825;28;20065;-77
2023/12/31 00:03:17;;;;;;;1.73;1.30;;;;;;;;;;5036078;28;20021;-77
2023/12/31 00:05:43;;;;;;;2.13;1.60;;;;;;;;;;5026523;28;20022;-77
2023/12/31 00:08:11;;;;;;;1.65;1.15;;;;;;;;;;5022498;28;20037;-78
2023/12/31 00:10:39;;;;;;;1.35;1.20;;;;;;;;;;5028238;28;20083;-76
2023/12/31 00:13:08;;;;;;;1.13;0.93;;;;;;;;;;5027964;28;20104;-78
2023/12/31 00:15:37;;;;;;;1.95;1.27;;;;;;;;;;5040348;28;20018;-78
2023/12/31 00:18:03;;;;;;;1.77;1.30;;;;;;;;;;5028670;28;20109;-77
2023/12/31 00:20:29;;;;;;;2.67;1.65;;;;;;;;;;5026389;28;20400;-77
2023/12/31 00:22:56;;;;;;;1.38;1.27;;;;;;;;;;5035687;28;20022;-77
2023/12/31 00:25:23;;;;;;;1.35;0.98;;;;;;;;;;5034521;28;20029;-78
2023/12/31 00:27:49;;;;;;;1.77;1.60;;;;;;;;;;5029261;28;20050;-77
2023/12/31 00:30:15;;;;;;;1.58;1.02;;;;;;;;;;5029945;28;20030;-77
2023/12/31 00:32:41;;;;;;;2.53;1.20;;;;;;;;;;5033033;28;20029;-77
2023/12/31 00:35:07;;;;;;;1.05;0.95;;;;;;;;;;5027447;28;20033;-77
2023/12/31 00:37:33;;;;;;;1.50;0.98;;;;;;;;;;5031747;28;20046;-76
2023/12/31 00:40:00;;;;;;;1.13;0.90;;;;;;;;;;5035804;28;20026;-77
2023/12/31 00:42:26;;;;;;;1.23;0.80;;;;;;;;;;5030313;28;20030;-76
2023/12/31 00:44:52;;;;;;;1.15;0.63;;;;;;;;;;5029781;28;20057;-76
2023/12/31 00:47:21;;;;;;;1.75;1.40;;;;;;;;;;5021108;28;20046;-76
2023/12/31 00:49:47;;;;;;;0.73;0.73;;;;;;;;;;5028733;28;20090;-76
2023/12/31 00:52:14;;;;;;;0.98;0.80;;;;;;;;;;5026974;28;20361;-77
2023/12/31 00:54:40;;;;;;;1.05;0.73;;;;;;;;;;5024476;28;20049;-76
2023/12/31 00:57:08;;;;;;;0.93;0.88;;;;;;;;;;5027006;28;20354;-81
2023/12/31 00:59:37;;;;;;;0.77;0.75;;;;;;;;;;5027115;28;20361;-77
2023/12/31 01:02:04;;;;;;;0.75;0.63;;;;;;;;;;5020615;28;20025;-78
2023/12/31 01:04:30;;;;;;;1.55;0.90;;;;;;;;;;5020767;28;20390;-77
2023/12/31 01:06:59;;;;;;;0.75;0.73;;;;;;;;;;5025255;28;20419;-77
2023/12/31 01:09:25;;;;;;;1.13;0.65;;;;;;;;;;5026157;28;20021;-77
2023/12/31 01:11:51;;;;;;;0.82;0.63;;;;;;;;;;5025309;28;20384;-76
2023/12/31 01:14:17;;;;;;;1.02;0.93;;;;;;;;;;5021708;28;20076;-77
2023/12/31 01:16:43;;;;;;;0.93;0.70;;;;;;;;;;5028626;28;20043;-76
2023/12/31 01:19:09;;;;;;;0.70;0.70;;;;;;;;;;5019784;28;20480;-77
2023/12/31 01:21:36;;;;;;;0.68;0.68;;;;;;;;;;5026647;28;20014;-77
2023/12/31 01:24:03;;;;;;;1.45;0.93;;;;;;;;;;5022553;28;20028;-77
2023/12/31 01:26:29;;;;;;;1.33;0.60;;;;;;;;;;5020914;28;20021;-78
2023/12/31 01:28:55;;;;;;;0.82;0.82;;;;;;;;;;5028594;28;20030;-77
2023/12/31 01:31:22;;;;;;;0.98;0.82;;;;;;;;;;5021044;28;20021;-77
2023/12/31 01:33:48;;;;;;;1.15;0.60;;;;;;;;;;5022385;28;20064;-77
2023/12/31 01:36:15;;;;;;;0.70;0.65;;;;;;;;;;5026341;28;20021;-76
2023/12/31 01:38:42;;;;;;;0.77;0.60;;;;;;;;;;5015928;28;20136;-77
2023/12/31 01:41:09;;;;;;;1.23;0.75;;;;;;;;;;5024288;28;20436;-77
2023/12/31 01:43:36;;;;;;;0.63;0.52;;;;;;;;;;5029962;28;20013;-77
2023/12/31 01:46:06;;;;;;;0.60;0.45;;;;;;;;;;5023644;28;20104;-77
2023/12/31 01:48:32;;;;;;;0.68;0.68;;;;;;;;;;5018462;28;20384;-76
2023/12/31 01:50:59;;;;;;;0.55;0.50;;;;;;;;;;5018798;28;20087;-77
2023/12/31 01:53:25;;;;;;;0.90;0.50;;;;;;;;;;5023437;28;20022;-77
2023/12/31 01:55:52;;;;;;;0.73;0.50;;;;;;;;;;5024727;28;20416;-77
2023/12/31 01:58:19;;;;;;;0.60;0.55;;;;;;;;;;5024277;28;20427;-77
2023/12/31 02:00:45;;;;;;;0.35;0.35;;;;;;;;;;5026323;28;20488;-78
2023/12/31 02:03:13;;;;;;;1.02;0.60;;;;;;;;;;5027203;28;20430;-77
2023/12/31 02:05:39;;;;;;;1.27;0.60;;;;;;;;;;5024514;28;20128;-77
2023/12/31 02:08:05;;;;;;;1.20;0.75;;;;;;;;;;5030029;28;20029;-78
2023/12/31 02:10:31;;;;;;;0.70;0.68;;;;;;;;;;5015259;28;20096;-77
2023/12/31 02:12:58;;;;;;;0.70;0.70;;;;;;;;;;5024431;28;20029;-77
2023/12/31 02:15:31;;;;;;;0.43;0.43;;;;;;;;;;5025100;28;20028;-77
2023/12/31 02:17:57;;;;;;;0.70;0.70;;;;;;;;;;5032776;28;20053;-76
2023/12/31 02:20:23;;;;;;;0.68;0.57;;;;;;;;;;5018888;28;20509;-76
2023/12/31 02:22:49;;;;;;;1.92;0.88;;;;;;;;;;5032233;28;20030;-76
2023/12/31 02:25:24;;;;;;;1.38;0.90;;;;;;;;;;5021518;28;20018;-78
2023/12/31 02:27:51;;;;;;;1.10;0.68;;;;;;;;;;5013717;28;20037;-77
2023/12/31 02:30:17;;;;;;;0.82;0.50;;;;;;;;;;5032179;28;20492;-77
2023/12/31 02:32:44;;;;;;;2.05;0.77;;;;;;;;;;5029802;28;20025;-77
2023/12/31 02:35:10;;;;;;;1.00;0.70;;;;;;;;;;5029498;28;20481;-77
2023/12/31 02:37:36;;;;;;;1.02;0.73;;;;;;;;;;5031795;28;20029;-77
2023/12/31 02:40:02;;;;;;;0.73;0.70;;;;;;;;;;5031810;28;20014;-77
2023/12/31 02:42:28;;;;;;;1.10;0.63;;;;;;;;;;5027306;28;20017;-77
2023/12/31 02:44:54;;;;;;;1.17;0.82;;;;;;;;;;5026589;28;20040;-77
2023/12/31 02:47:20;;;;;;;0.50;0.50;;;;;;;;;;5033949;28;20013;-77
2023/12/31 02:49:46;;;;;;;0.52;0.50;;;;;;;;;;5034503;28;20027;-77
2023/12/31 02:52:14;;;;;;;1.60;0.65;;;;;;;;;;5036147;28;20025;-77
2023/12/31 02:54:41;;;;;;;0.70;0.60;;;;;;;;;;5043764;28;20029;-77
2023/12/31 02:57:07;;;;;;;0.50;0.50;;;;;;;;;;5034070;28;20025;-77
2023/12/31 02:59:36;;;;;;;0.85;0.73;;;;;;;;;;5041449;28;20033;-77
2023/12/31 03:02:02;;;;;;;1.27;0.80;;;;;;;;;;5040066;28;20028;-77
2023/12/31 03:04:29;;;;;;;0.75;0.70;;;;;;;;;;5019081;28;20026;-77
2023/12/31 03:06:55;;;;;;;0.60;0.60;;;;;;;;;;5024582;28;20096;-76
2023/12/31 03:09:21;;;;;;;1.48;1.10;;;;;;;;;;5033588;28;20030;-77
2023/12/31 03:11:49;;;;;;;0.95;0.80;;;;;;;;;;5030029;28;20384;-77
2023/12/31 03:14:15;;;;;;;0.70;0.70;;;;;;;;;;5016795;28;20029;-77
2023/12/31 03:16:44;;;;;;;1.35;0.73;;;;;;;;;;5018952;28;20475;-76
2023/12/31 03:19:14;;;;;;;0.52;0.52;;;;;;;;;;5024255;28;20013;-77
2023/12/31 03:21:40;;;;;;;0.65;0.65;;;;;;;;;;5016014;28;20068;-79
2023/12/31 03:24:07;;;;;;;1.00;0.65;;;;;;;;;;5013355;28;20093;-76
2023/12/31 03:26:33;;;;;;;0.80;0.75;;;;;;;;;;5023497;28;20022;-77
2023/12/31 03:28:59;;;;;;;0.98;0.80;;;;;;;;;;5016919;28;20030;-77
2023/12/31 03:31:25;;;;;;;1.17;0.70;;;;;;;;;;5032482;28;20124;-77
2023/12/31 03:33:51;;;;;;;0.47;0.45;;;;;;;;;;5017557;28;20443;-78
2023/12/31 03:36:18;;;;;;;0.60;0.60;;;;;;;;;;5033223;28;20025;-76
2023/12/31 03:38:44;;;;;;;0.68;0.50;;;;;;;;;;5049671;28;20115;-74
2023/12/31 03:41:10;;;;;;;0.90;0.40;;;;;;;;;;5042592;28;20026;-78
2023/12/31 03:43:36;;;;;;;1.48;0.75;;;;;;;;;;5033315;28;20018;-76
2023/12/31 03:46:02;;;;;;;0.93;0.57;;;;;;;;;;5043044;28;20029;-76
2023/12/31 03:48:28;;;;;;;0.77;0.60;;;;;;;;;;5040926;28;20029;-76
2023/12/31 03:50:54;;;;;;;1.02;0.60;;;;;;;;;;5038530;28;20045;-77
2023/12/31 03:53:20;;;;;;;0.28;0.28;;;;;;;;;;5034883;28;20044;-77
2023/12/31 03:55:46;;;;;;;0.90;0.68;;;;;;;;;;5030861;28;20030;-77
2023/12/31 03:58:12;;;;;;;0.60;0.60;;;;;;;;;;5042161;28;20113;-77
2023/12/31 04:00:38;;;;;;;0.63;0.40;;;;;;;;;;5021480;28;20424;-77
2023/12/31 04:03:05;;;;;;;0.28;0.28;;;;;;;;;;5029104;28;20361;-76
2023/12/31 04:05:31;;;;;;;0.28;0.28;;;;;;;;;;5026688;28;20112;-76
2023/12/31 04:07:57;;;;;;;1.02;0.50;;;;;;;;;;5019364;28;20037;-77
2023/12/31 04:10:23;;;;;;;0.82;0.63;;;;;;;;;;5037956;28;20021;-77
2023/12/31 04:12:49;;;;;;;0.50;0.50;;;;;;;;;;5030800;28;20030;-77
2023/12/31 04:15:15;;;;;;;0.95;0.52;;;;;;;;;;5058072;28;20031;-76
2023/12/31 04:17:41;;;;;;;0.90;0.50;;;;;;;;;;5058446;28;20014;-76
2023/12/31 04:20:08;;;;;;;0.50;0.50;;;;;;;;;;5047486;28;20022;-76
2023/12/31 04:22:34;;;;;;;0.45;0.30;;;;;;;;;;5040176;28;20016;-76
2023/12/31 04:25:01;;;;;;;1.52;0.30;;;;;;;;;;5050582;28;20040;-76
2023/12/31 04:27:30;;;;;;;0.82;0.52;;;;;;;;;;5059789;28;20060;-76
2023/12/31 04:29:56;;;;;;;0.70;0.50;;;;;;;;;;5047345;28;20085;-77
2023/12/31 04:32:25;;;;;;;0.52;0.40;;;;;;;;;;5045938;28;20077;-77
2023/12/31 04:34:51;;;;;;;0.73;0.47;;;;;;;;;;5054667;28;20057;-76
2023/12/31 04:37:17;;;;;;;0.43;0.43;;;;;;;;;;5047255;28;20393;-77
2023/12/31 04:39:43;;;;;;;0.35;0.35;;;;;;;;;;5043605;28;20108;-76
2023/12/31 04:42:09;;;;;;;0.80;0.50;;;;;;;;;;5041269;28;20033;-76
2023/12/31 04:44:35;;;;;;;0.45;0.30;;;;;;;;;;5024939;28;20408;-77
2023/12/31 04:47:01;;;;;;;0.45;0.40;;;;;;;;;;5027424;28;20025;-76
2023/12/31 04:49:28;;;;;;;0.40;0.20;;;;;;;;;;5036842;28;20088;-76
2023/12/31 04:51:54;;;;;;;0.20;0.20;;;;;;;;;;5037320;28;20018;-76
2023/12/31 04:54:20;;;;;;;0.50;0.40;;;;;;;;;;5041677;28;20017;-76
2023/12/31 04:56:47;;;;;;;0.90;0.50;;;;;;;;;;5039370;28;20033;-76
2023/12/31 04:59:13;;;;;;;0.40;0.40;;;;;;;;;;5046077;28;20045;-76
2023/12/31 05:01:39;;;;;;;0.35;0.32;;;;;;;;;;5045365;28;20021;-76
2023/12/31 05:04:07;;;;;;;0.45;0.40;;;;;;;;;;5044483;28;20069;-77
2023/12/31 05:06:33;;;;;;;0.95;0.40;;;;;;;;;;5049220;28;20094;-75
2023/12/31 05:09:00;;;;;;;0.57;0.40;;;;;;;;;;5053108;28;20054;-78
2023/12/31 05:11:26;;;;;;;0.57;0.45;;;;;;;;;;5043742;28;20022;-75
2023/12/31 05:13:53;;;;;;;1.35;0.30;;;;;;;;;;5046976;28;20041;-77
2023/12/31 05:16:19;;;;;;;0.30;0.30;;;;;;;;;;5045167;28;20021;-77
2023/12/31 05:18:46;;;;;;;0.68;0.40;;;;;;;;;;5036888;28;20021;-77
2023/12/31 05:21:12;;;;;;;0.30;0.20;;;;;;;;;;5033033;28;20143;-79
2023/12/31 05:23:41;;;;;;;0.17;0.17;;;;;;;;;;5026629;28;20061;-77
2023/12/31 05:26:07;;;;;;;0.38;0.35;;;;;;;;;;5029295;28;20014;-79
2023/12/31 05:28:34;;;;;;;0.25;0.20;;;;;;;;;;5034050;28;20026;-78
2023/12/31 05:31:00;;;;;;;0.30;0.22;;;;;;;;;;5026170;28;20036;-78
2023/12/31 05:33:26;;;;;;;0.57;0.30;;;;;;;;;;5031955;28;20431;-78
2023/12/31 05:35:52;;;;;;;0.30;0.28;;;;;;;;;;5035603;28;20079;-78
2023/12/31 05:38:19;;;;;;;0.30;0.30;;;;;;;;;;5041046;28;20091;-77
2023/12/31 05:40:45;;;;;;;0.20;0.20;;;;;;;;;;5035882;28;20018;-78
2023/12/31 05:43:11;;;;;;;0.30;0.20;;;;;;;;;;5043532;28;20022;-78
2023/12/31 05:45:37;;;;;;;0.20;0.20;;;;;;;;;;5034634;28;20018;-78
2023/12/31 05:48:04;;;;;;;0.30;0.30;;;;;;;;;;5029226;28;20036;-77
2023/12/31 05:50:30;;;;;;;0.52;0.40;;;;;;;;;;5034872;28;20032;-78
2023/12/31 05:52:56;;;;;;;0.32;0.30;;;;;;;;;;5040109;28;20030;-78
2023/12/31 05:55:22;;;;;;;0.28;0.28;;;;;;;;;;5028710;28;20045;-78
2023/12/31 05:57:48;;;;;;;0.30;0.30;;;;;;;;;;5029902;28;20025;-78
2023/12/31 06:00:15;;;;;;;0.28;0.28;;;;;;;;;;5033078;28;20100;-77
2023/12/31 06:02:41;;;;;;;0.77;0.50;;;;;;;;;;5043376;28;20433;-78
2023/12/31 06:05:07;;;;;;;0.50;0.40;;;;;;;;;;5035171;28;20052;-79
2023/12/31 06:07:34;;;;;;;0.22;0.22;;;;;;;;;;5029537;28;20010;-77
2023/12/31 06:10:00;;;;;;;0.28;0.28;;;;;;;;;;5023337;28;20037;-78
2023/12/31 06:12:26;;;;;;;0.35;0.28;;;;;;;;;;5029549;28;20026;-77
2023/12/31 06:14:52;;;;;;;0.20;0.20;;;;;;;;;;5039797;28;20025;-78
2023/12/31 06:17:18;;;;;;;0.30;0.20;;;;;;;;;;5034110;28;20393;-78
2023/12/31 06:19:44;;;;;;;0.25;0.25;;;;;;;;;;5028123;28;20030;-77
2023/12/31 06:22:11;;;;;;;0.10;0.10;;;;;;;;;;5040360;28;20081;-77
2023/12/31 06:24:37;;;;;;;0.52;0.20;;;;;;;;;;5035257;28;20022;-78
2023/12/31 06:27:03;;;;;;;0.30;0.20;;;;;;;;;;5033683;28;20468;-77
2023/12/31 06:29:29;;;;;;;0.30;0.28;;;;;;;;;;5033588;28;20026;-79
2023/12/31 06:31:56;;;;;;;0.43;0.43;;;;;;;;;;5041861;28;20034;-79
2023/12/31 06:34:46;;;;;;;0.10;0.10;;;;;;;;;;5024808;28;20073;-80
2023/12/31 06:37:13;;;;;;;0.88;0.47;;;;;;;;;;5030557;28;20037;-80
2023/12/31 06:39:46;;;;;;;0.30;0.20;;;;;;;;;;5027909;28;20099;-79
2023/12/31 06:42:28;;;;;;;0.43;0.10;;;;;;;;;;5026149;28;20029;-78
2023/12/31 06:44:55;;;;;;;0.20;0.13;;;;;;;;;;5024240;28;20045;-78
2023/12/31 06:47:21;;;;;;;0.32;0.20;;;;;;;;;;5026453;28;20018;-78
2023/12/31 06:49:47;;;;;;;0.47;0.35;;;;;;;;;;5026166;28;20025;-79
2023/12/31 06:52:13;;;;;;;0.38;0.38;;;;;;;;;;5022606;28;20020;-78
2023/12/31 06:54:41;;;;;;;0.30;0.28;;;;;;;;;;5029912;28;20083;-79
2023/12/31 06:57:08;;;;;;;0.35;0.20;;;;;;;;;;5038261;28;20032;-79
2023/12/31 06:59:34;;;;;;;0.28;0.28;;;;;;;;;;5037702;28;20018;-78
2023/12/31 07:02:02;;;;;;;0.30;0.28;;;;;;;;;;5028805;28;20024;-81
2023/12/31 07:04:30;;;;;;;0.20;0.20;;;;;;;;;;5042596;28;20436;-78
2023/12/31 07:07:05;;;;;;;0.65;0.35;;;;;;;;;;5039612;28;20029;-79
2023/12/31 07:09:33;;;;;;;0.40;0.40;;;;;;;;;;5043911;28;20021;-81
2023/12/31 07:12:41;;;;;;;0.38;0.38;;;;;;;;;;5031814;28;20026;-79
2023/12/31 07:19:21;;;;;;;0.50;0.30;;;;;;;;;;5029242;28;20074;-83
2023/12/31 07:22:10;;;;;;;0.22;0.22;;;;;;;;;;5028566;28;20080;-81
2023/12/31 07:24:40;;;;;;;0.20;0.20;;;;;;;;;;5006033;28;20026;-78
2023/12/31 07:27:14;;;;;;;0.40;0.30;;;;;;;;;;5032953;28;20037;-79
2023/12/31 07:29:42;;;;;;;0.35;0.30;;;;;;;;;;5037945;28;20017;-78
2023/12/31 07:32:11;;;;;;;0.30;0.30;;;;;;;;;;5050352;28;20017;-81
2023/12/31 07:34:41;;;;;;;0.30;0.20;;;;;;;;;;5032598;28;20014;-79
2023/12/31 07:37:07;;;;;;;0.22;0.22;;;;;;;;;;5051174;28;20010;-77
2023/12/31 07:39:36;;;;;;;0.47;0.28;;;;;;;;;;5042988;28;20033;-79
2023/12/31 07:42:06;;;;;;;0.68;0.40;;;;;;;;;;5046015;28;20097;-78
2023/12/31 07:44:32;;;;;;;0.60;0.60;;;;;;;;;;5041117;28;20033;-78
2023/12/31 07:46:59;;;;;;;0.30;0.30;;;;;;;;;;5034038;28;20052;-78
2023/12/31 07:49:25;;;;;;;0.40;0.35;;;;;;;;;;5047267;28;20032;-79
2023/12/31 07:51:52;;;;;;;0.77;0.50;;;;;;;;;;5049046;28;20033;-79
2023/12/31 07:54:19;;;;;;;2.08;0.73;;;;;;;;;;5039747;28;20014;-80
2023/12/31 07:56:46;;;;;;;0.93;0.70;;;;;;;;;;5051469;28;20029;-79
2023/12/31 07:59:12;;;;;;;0.52;0.52;;;;;;;;;;5032037;28;20102;-79
2023/12/31 08:01:38;;;;;;;0.68;0.47;;;;;;;;;;5045945;28;20021;-79
2023/12/31 08:04:10;;;;;;;0.93;0.60;;;;;;;;;;5042993;28;20029;-79
2023/12/31 08:06:37;;;;;;;0.55;0.40;;;;;;;;;;5026801;28;20014;-80
2023/12/31 08:09:03;;;;;;;0.40;0.40;;;;;;;;;;5032905;28;20069;-79
2023/12/31 08:11:29;;;;;;;0.50;0.30;;;;;;;;;;5042972;28;20014;-79
2023/12/31 08:14:03;;;;;;;0.32;0.32;;;;;;;;;;5037831;28;20092;-80
2023/12/31 08:16:29;;;;;;;0.40;0.35;;;;;;;;;;5041039;28;20036;-80
2023/12/31 08:18:59;;;;;;;0.60;0.47;;;;;;;;;;5041729;28;20029;-80
2023/12/31 08:21:25;;;;;;;1.05;0.50;;;;;;;;;;5035014;28;20030;-78
2023/12/31 08:23:51;;;;;;;0.35;0.30;;;;;;;;;;5045436;28;20116;-78
2023/12/31 08:26:18;;;;;;;0.30;0.30;;;;;;;;;;5033502;28;20025;-78
2023/12/31 08:28:44;;;;;;;0.50;0.35;;;;;;;;;;5021152;28;20034;-78
2023/12/31 08:31:17;;;;;;;0.38;0.38;;;;;;;;;;5028749;28;20025;-77
2023/12/31 08:33:43;;;;;;;0.65;0.65;;;;;;;;;;5041296;28;20401;-78
2023/12/31 08:36:09;;;;;;;0.45;0.20;;;;;;;;;;5037108;28;20094;-79
2023/12/31 08:38:36;;;;;;;0.38;0.38;;;;;;;;;;5042861;28;20029;-78
2023/12/31 08:41:05;;;;;;;0.15;0.15;;;;;;;;;;5040762;28;20022;-78
2023/12/31 08:43:31;;;;;;;0.40;0.40;;;;;;;;;;5032798;28;20017;-78
2023/12/31 08:45:57;;;;;;;0.28;0.28;;;;;;;;;;5038961;28;20373;-81
2023/12/31 08:48:24;;;;;;;0.47;0.45;;;;;;;;;;5032636;28;20048;-77
2023/12/31 08:50:50;;;;;;;0.50;0.50;;;;;;;;;;5033611;28;20450;-78
2023/12/31 08:53:16;;;;;;;0.68;0.50;;;;;;;;;;5034271;28;20029;-77
2023/12/31 08:55:42;;;;;;;0.63;0.55;;;;;;;;;;5031488;28;20034;-77
2023/12/31 08:58:09;;;;;;;0.52;0.40;;;;;;;;;;5041969;28;20031;-76
2023/12/31 09:00:35;;;;;;;0.40;0.28;;;;;;;;;;5029531;28;20026;-78
2023/12/31 09:03:01;;;;;;;0.45;0.45;;;;;;;;;;5035318;28;20036;-78
2023/12/31 09:05:27;;;;;;;1.45;0.47;;;;;;;;;;5030906;28;20018;-76
2023/12/31 09:07:54;;;;;;;0.40;0.40;;;;;;;;;;5034537;28;20026;-78
2023/12/31 09:10:20;;;;;;;0.35;0.35;;;;;;;;;;5030564;28;20027;-78
2023/12/31 09:12:47;;;;;;;0.35;0.35;;;;;;;;;;5029059;28;20034;-78
2023/12/31 09:15:13;;;;;;;0.25;0.25;;;;;;;;;;5029124;28;20013;-78
2023/12/31 09:17:39;;;;;;;0.52;0.40;;;;;;;;;;5030781;28;20032;-77
2023/12/31 09:20:06;;;;;;;0.40;0.40;;;;;;;;;;5032485;28;20022;-77
2023/12/31 09:22:33;;;;;;;0.40;0.40;;;;;;;;;;5027174;28;20018;-78
2023/12/31 09:24:59;;;;;;;0.30;0.30;;;;;;;;;;5029390;28;20030;-77
2023/12/31 09:27:25;;;;;;;0.40;0.40;;;;;;;;;;5028579;28;20021;-78
2023/12/31 09:29:51;;;;;;;0.40;0.40;;;;;;;;;;5034904;28;20033;-77
2023/12/31 09:32:17;;;;;;;0.30;0.30;;;;;;;;;;5024315;28;20025;-78
2023/12/31 09:34:44;;;;;;;0.57;0.47;;;;;;;;;;5024878;28;20395;-78
2023/12/31 09:37:11;;;;;;;0.32;0.32;;;;;;;;;;5027011;28;20468;-79
2023/12/31 09:39:37;;;;;;;0.57;0.50;;;;;;;;;;5020692;28;20018;-77
2023/12/31 09:42:10;;;;;;;0.40;0.40;;;;;;;;;;5017697;28;20024;-78
2023/12/31 09:44:36;;;;;;;;;;;;;;;;;;5021679;28;20056;-78
2023/12/31 09:47:06;;;;;;;0.40;0.40;;;;;;;;;;5033834;28;19909;-77
2023/12/31 09:49:36;;;;;;;0.30;0.30;;;;;;;;;;5027733;28;20017;-78
2023/12/31 09:52:03;;;;;;;0.55;0.55;;;;;;;;;;5027107;28;20045;-78
2023/12/31 09:54:31;;;;;;;0.30;0.30;;;;;;;;;;5017449;28;20076;-79
2023/12/31 09:57:01;;;;;;;0.50;0.30;;;;;;;;;;5017387;28;20056;-77
2023/12/31 09:59:28;;;;;;;0.43;0.40;;;;;;;;;;5040913;28;20032;-77
2023/12/31 10:02:07;;;;;;;0.25;0.25;;;;;;;;;;5025763;28;20022;-78
2023/12/31 10:04:33;;;;;;;0.20;0.20;;;;;;;;;;5023599;28;20021;-78
2023/12/31 10:07:00;;;;;;;0.30;0.30;;;;;;;;;;5037935;28;20025;-79
2023/12/31 10:09:36;;;;;;;0.43;0.40;;;;;;;;;;5027627;28;20029;-77
2023/12/31 10:12:02;;;;;;;0.22;0.22;;;;;;;;;;5026524;28;20043;-78
2023/12/31 10:14:28;;;;;;;0.45;0.30;;;;;;;;;;5023337;28;20121;-78
2023/12/31 10:16:54;;;;;;;0.40;0.30;;;;;;;;;;5031579;28;20029;-79
2023/12/31 10:19:20;;;;;;;0.32;0.32;;;;;;;;;;5033362;28;20049;-77
2023/12/31 10:21:46;;;;;;;0.20;0.20;;;;;;;;;;5030724;28;20021;-77
2023/12/31 10:24:12;;;;;;;0.30;0.30;;;;;;;;;;5019678;28;20021;-78
2023/12/31 10:26:39;;;;;;;0.30;0.30;;;;;;;;;;5024658;28;20022;-77
2023/12/31 10:29:06;;;;;;;0.45;0.30;;;;;;;;;;5030888;28;20033;-78
2023/12/31 10:31:32;;;;;;;0.20;0.20;;;;;;;;;;5031574;28;20029;-79
2023/12/31 10:34:17;;;;;;;0.40;0.40;;;;;;;;;;5023519;28;20033;-78
2023/12/31 10:36:47;;;;;;;1.23;1.10;;;;;;;;;;5023100;28;20026;-78
2023/12/31 10:39:29;;;;;;;1.98;1.38;;;;;;;;;;5033215;28;20028;-77
2023/12/31 10:41:59;;;;;;;2.60;1.40;;;;;;;;;;5021671;28;20029;-77
2023/12/31 10:44:26;;;;;;;2.47;1.20;;;;;;;;;;5043253;28;20057;-79
2023/12/31 10:47:00;;;;;;;1.90;1.13;;;;;;;;;;5029307;28;20502;-77
2023/12/31 10:49:30;;;;;;;1.70;1.20;;;;;;;;;;5037620;28;20038;-78
2023/12/31 10:51:56;;;;;;;1.92;1.13;;;;;;;;;;5033519;28;20100;-77
2023/12/31 10:54:41;;;;;;;1.63;1.13;;;;;;;;;;5045686;28;20025;-77
2023/12/31 10:57:07;;;;;;;1.73;1.10;;;;;;;;;;5040676;28;20035;-78
2023/12/31 10:59:35;;;;;;;2.03;1.20;;;;;;;;;;5034635;28;20076;-78
2023/12/31 11:02:01;;;;;;;1.23;1.08;;;;;;;;;;5033422;28;20022;-77
2023/12/31 11:04:28;;;;;;;1.20;1.10;;;;;;;;;;5047089;28;20033;-77
2023/12/31 11:06:56;;;;;;;0.98;0.90;;;;;;;;;;5039454;28;20028;-77
2023/12/31 11:09:22;;;;;;;1.27;0.82;;;;;;;;;;5044910;28;20013;-78
2023/12/31 11:11:51;;;;;;;1.23;1.10;;;;;;;;;;5038211;28;20026;-77
2023/12/31 11:14:19;;;;;;;1.17;0.82;;;;;;;;;;5042194;28;20061;-77
2023/12/31 11:17:06;;;;;;;0.88;0.75;;;;;;;;;;5049495;28;20005;-78
2023/12/31 11:19:32;;;;;;;1.35;0.70;;;;;;;;;;5020833;28;20041;-79
2023/12/31 11:21:58;;;;;;;0.73;0.70;;;;;;;;;;5048494;28;20021;-78
2023/12/31 11:24:25;;;;;;;0.90;0.90;;;;;;;;;;5022568;28;20046;-78
2023/12/31 11:27:15;;;;;;;0.98;0.75;;;;;;;;;;5017923;28;20113;-77
2023/12/31 11:29:41;;;;;;;0.80;0.80;;;;;;;;;;5022529;28;20484;-77
2023/12/31 11:32:09;;;;;;;0.68;0.60;;;;;;;;;;5022403;28;20018;-78
2023/12/31 11:34:41;;;;;;;0.38;0.38;;;;;;;;;;5027156;28;20056;-78
2023/12/31 11:37:07;;;;;;;0.68;0.50;;;;;;;;;;5016702;28;20022;-77
2023/12/31 11:39:33;;;;;;;1.20;0.63;;;;;;;;;;5020067;28;20029;-77
2023/12/31 11:42:10;;;;;;;0.55;0.55;;;;;;;;;;5022295;28;20348;-77
2023/12/31 11:44:36;;;;;;;0.90;0.60;;;;;;;;;;5015201;28;20033;-77
2023/12/31 11:47:02;;;;;;;0.65;0.65;;;;;;;;;;5029779;28;20538;-78
2023/12/31 11:49:29;;;;;;;0.47;0.47;;;;;;;;;;5038589;28;20025;-76
2023/12/31 11:51:55;;;;;;;0.60;0.60;;;;;;;;;;5023792;28;20105;-77
2023/12/31 11:54:25;;;;;;;0.55;0.40;;;;;;;;;;5038894;28;20025;-78
2023/12/31 11:56:52;;;;;;;0.40;0.40;;;;;;;;;;5019067;28;20032;-78
2023/12/31 11:59:18;;;;;;;0.57;0.57;;;;;;;;;;5023871;28;20108;-78
2023/12/31 12:01:45;;;;;;;0.68;0.68;;;;;;;;;;5031253;28;20036;-78
2023/12/31 12:04:14;;;;;;;1.00;0.90;;;;;;;;;;5030668;28;20018;-77
2023/12/31 12:06:40;;;;;;;1.05;0.95;;;;;;;;;;5027935;28;20484;-78
2023/12/31 12:09:07;;;;;;;2.83;1.20;;;;;;;;;;5026394;28;20033;-78
2023/12/31 12:11:38;;;;;;;1.38;1.05;;;;;;;;;;5034584;28;20453;-78
2023/12/31 12:14:04;;;;;;;1.90;1.02;;;;;;;;;;5034206;28;20040;-77
2023/12/31 12:16:31;;;;;;;1.00;0.88;;;;;;;;;;5043428;28;20021;-77
2023/12/31 12:19:05;;;;;;;0.77;0.77;;;;;;;;;;5025264;28;20033;-78
2023/12/31 12:21:32;;;;;;;0.75;0.73;;;;;;;;;;5019215;28;20097;-79
2023/12/31 12:23:58;;;;;;;0.93;0.80;;;;;;;;;;5032888;28;20029;-78
2023/12/31 12:26:28;;;;;;;1.50;0.95;;;;;;;;;;5033302;28;20063;-78
2023/12/31 12:28:56;;;;;;;0.60;0.60;;;;;;;;;;5038687;28;20098;-79
2023/12/31 12:31:23;;;;;;;0.63;0.63;;;;;;;;;;5035073;28;20021;-78
2023/12/31 12:33:53;;;;;;;1.30;0.90;;;;;;;;;;5032472;28;20060;-78
2023/12/31 12:36:20;;;;;;;1.38;0.80;;;;;;;;;;5030133;28;20049;-79
2023/12/31 12:38:48;;;;;;;0.68;0.60;;;;;;;;;;5025911;28;20424;-78
2023/12/31 12:41:33;;;;;;;0.70;0.60;;;;;;;;;;5021763;28;20046;-78
2023/12/31 12:44:00;;;;;;;0.52;0.40;;;;;;;;;;5027579;28;20104;-78
2023/12/31 12:46:27;;;;;;;0.65;0.65;;;;;;;;;;5032470;28;20024;-79
2023/12/31 12:48:53;;;;;;;0.40;0.40;;;;;;;;;;5023093;28;20558;-77
2023/12/31 12:51:19;;;;;;;0.95;0.73;;;;;;;;;;5032157;28;20114;-79
2023/12/31 12:53:45;;;;;;;0.77;0.50;;;;;;;;;;5035304;28;20021;-77
2023/12/31 12:56:11;;;;;;;0.88;0.60;;;;;;;;;;5033502;28;20025;-78
2023/12/31 12:58:37;;;;;;;0.95;0.70;;;;;;;;;;5027151;28;20786;-78
2023/12/31 13:01:04;;;;;;;0.73;0.73;;;;;;;;;;5033661;28;20022;-78
2023/12/31 13:03:31;;;;;;;0.82;0.70;;;;;;;;;;5033304;28;20013;-76
2023/12/31 13:05:58;;;;;;;1.08;0.85;;;;;;;;;;5024965;28;20038;-77
2023/12/31 13:08:24;;;;;;;0.50;0.50;;;;;;;;;;5035560;28;20020;-77
2023/12/31 13:10:51;;;;;;;0.93;0.80;;;;;;;;;;5033636;28;20017;-77
2023/12/31 13:13:17;;;;;;;0.60;0.60;;;;;;;;;;5033957;28;20030;-77
2023/12/31 13:15:43;;;;;;;1.23;0.70;;;;;;;;;;5024720;28;20025;-79
2023/12/31 13:18:12;;;;;;;0.75;0.60;;;;;;;;;;5025237;28;20055;-77
2023/12/31 13:20:38;;;;;;;0.60;0.60;;;;;;;;;;5019203;28;20026;-77
2023/12/31 13:23:04;;;;;;;0.57;0.57;;;;;;;;;;5028207;28;20054;-77
2023/12/31 13:25:30;;;;;;;0.77;0.68;;;;;;;;;;5030151;28;20024;-77
2023/12/31 13:27:56;;;;;;;0.45;0.45;;;;;;;;;;5029778;28;20087;-77
2023/12/31 13:30:22;;;;;;;0.52;0.52;;;;;;;;;;5017698;28;20018;-77
2023/12/31 13:32:49;;;;;;;0.75;0.68;;;;;;;;;;5013421;28;20034;-77
2023/12/31 13:35:15;;;;;;;0.88;0.80;;;;;;;;;;5037477;28;20024;-78
2023/12/31 13:37:42;;;;;;;1.10;0.70;;;;;;;;;;5020300;28;20022;-77
2023/12/31 13:40:08;;;;;;;0.60;0.50;;;;;;;;;;5027748;28;20047;-78
2023/12/31 13:42:34;;;;;;;1.02;0.47;;;;;;;;;;5022235;28;20025;-78
2023/12/31 13:45:00;;;;;;;0.52;0.52;;;;;;;;;;5029583;28;20025;-77
2023/12/31 13:47:27;;;;;;;0.40;0.40;;;;;;;;;;5031269;28;20066;-79
2023/12/31 13:49:53;;;;;;;0.32;0.32;;;;;;;;;;5016538;28;20080;-79
2023/12/31 13:52:19;;;;;;;0.77;0.57;;;;;;;;;;5024111;28;20096;-78
2023/12/31 13:54:45;;;;;;;0.50;0.50;;;;;;;;;;5015265;28;20034;-79
2023/12/31 13:57:12;;;;;;;0.60;0.43;;;;;;;;;;5030308;28;20029;-77
2023/12/31 13:59:38;;;;;;;0.50;0.43;;;;;;;;;;5024643;28;20396;-78
2023/12/31 14:02:04;;;;;;;0.52;0.50;;;;;;;;;;5024755;28;20029;-78
2023/12/31 14:04:30;;;;;;;0.77;0.57;;;;;;;;;;5024427;28;20024;-77
2023/12/31 14:06:56;;;;;;;0.40;0.40;;;;;;;;;;5026691;28;20026;-77
2023/12/31 14:09:22;;;;;;;0.98;0.52;;;;;;;;;;5027977;28;20034;-78
2023/12/31 14:11:48;;;;;;;0.45;0.45;;;;;;;;;;5027337;28;20052;-77
2023/12/31 14:14:15;;;;;;;0.55;0.40;;;;;;;;;;5024436;28;20075;-78
2023/12/31 14:16:42;;;;;;;0.47;0.47;;;;;;;;;;5026403;28;20070;-77
2023/12/31 14:19:08;;;;;;;0.45;0.45;;;;;;;;;;5027908;28;20110;-78
2023/12/31 14:21:35;;;;;;;0.90;0.57;;;;;;;;;;5031830;28;20026;-78
2023/12/31 14:24:01;;;;;;;0.95;0.40;;;;;;;;;;5023581;28;20049;-78
2023/12/31 14:26:27;;;;;;;0.35;0.32;;;;;;;;;;5021124;28;20105;-77
2023/12/31 14:28:53;;;;;;;0.75;0.40;;;;;;;;;;5023523;28;20033;-78
2023/12/31 14:31:20;;;;;;;0.57;0.55;;;;;;;;;;5048187;28;20123;-79
2023/12/31 14:33:46;;;;;;;0.47;0.47;;;;;;;;;;5035360;28;20044;-79
2023/12/31 14:36:12;;;;;;;0.60;0.50;;;;;;;;;;5041465;28;20042;-77
2023/12/31 14:38:39;;;;;;;2.28;0.93;;;;;;;;;;5054956;28;20037;-78
2023/12/31 14:41:05;;;;;;;1.13;1.00;;;;;;;;;;5042411;28;20022;-78
2023/12/31 14:43:32;;;;;;;4.90;2.63;;;;;;;;;;5027122;28;20097;-79
2023/12/31 14:45:58;;;;;;;8.13;3.47;;;;;;;;;;5038002;28;20112;-79
2023/12/31 14:48:24;;;;;;;5.22;2.40;;;;;;;;;;5050969;28;20021;-78